createdAt,value
2022-12-15T00:00:30.828Z,-0.05
2022-12-15T00:03:29.834Z,-0.03
2022-12-15T00:09:45.458Z,-0.07
2022-12-15T00:12:46.465Z,-0.40
2022-12-15T00:18:45.924Z,-0.13
2022-12-15T00:21:35.251Z,-0.25
2022-12-15T00:24:38.380Z,-0.08
2022-12-15T00:27:34.654Z,-0.10
2022-12-15T00:30:25.843Z,-0.12
2022-12-15T00:33:14.091Z,-0.21
2022-12-15T00:36:09.846Z,-0.01
2022-12-15T00:38:42.233Z,-0.10
2022-12-15T00:41:14.678Z,-0.15
2022-12-15T00:43:44.868Z,-0.32
2022-12-15T00:46:33.737Z,-0.23
2022-12-15T00:49:35.867Z,-0.35
2022-12-15T00:52:24.542Z,-0.26
2022-12-15T00:55:18.188Z,-0.31
2022-12-15T00:58:09.266Z,-0.28
2022-12-15T01:04:00.088Z,-0.29
2022-12-15T01:06:53.367Z,-0.12
2022-12-15T01:09:44.998Z,-0.28
2022-12-15T01:12:34.616Z,-0.14
2022-12-15T01:15:24.352Z,-0.30
2022-12-15T01:18:24.464Z,-0.36
2022-12-15T01:21:02.926Z,-0.29
2022-12-15T01:23:33.974Z,-0.19
2022-12-15T01:26:13.980Z,-0.22
2022-12-15T01:28:43.515Z,-0.31
2022-12-15T01:31:16.250Z,-0.20
2022-12-15T01:33:51.990Z,-0.20
2022-12-15T01:36:21.257Z,-0.06
2022-12-15T01:38:54.113Z,-0.16
2022-12-15T01:41:27.371Z,0.03
2022-12-15T01:44:27.058Z,-0.08
2022-12-15T01:47:00.255Z,-0.34
2022-12-15T01:49:33.228Z,-0.24
2022-12-15T01:52:07.409Z,-0.34
2022-12-15T01:54:50.235Z,-0.25
2022-12-15T02:00:10.516Z,-0.41
2022-12-15T02:02:44.740Z,-0.37
2022-12-15T02:05:21.486Z,-0.33
2022-12-15T02:08:01.597Z,-0.28
2022-12-15T02:11:11.869Z,-0.36
2022-12-15T02:14:05.033Z,-0.38
2022-12-15T02:16:56.894Z,-0.28
2022-12-15T02:20:07.748Z,-0.29
2022-12-15T02:22:58.868Z,-0.20
2022-12-15T02:26:06.397Z,-0.22
2022-12-15T02:29:14.907Z,-0.23
2022-12-15T02:32:04.453Z,-0.25
2022-12-15T02:34:56.973Z,-0.12
2022-12-15T02:37:37.855Z,-0.40
2022-12-15T02:40:12.017Z,-0.29
2022-12-15T02:42:49.108Z,-0.18
2022-12-15T02:49:04.925Z,-0.08
2022-12-15T02:55:31.849Z,-0.03
2022-12-15T02:58:37.306Z,-0.20
2022-12-15T03:01:50.103Z,-0.11
2022-12-15T03:04:21.244Z,-0.06
2022-12-15T03:09:45.281Z,0.04
2022-12-15T03:12:19.716Z,-0.01
2022-12-15T03:14:49.239Z,0.04
2022-12-15T03:17:19.552Z,-0.04
2022-12-15T03:19:50.043Z,0.15
2022-12-15T03:22:24.568Z,0.13
2022-12-15T03:24:53.467Z,-0.01
2022-12-15T03:27:25.634Z,-0.06
2022-12-15T03:29:57.747Z,-0.06
2022-12-15T03:32:42.401Z,-0.13
2022-12-15T03:38:04.902Z,-0.11
2022-12-15T03:40:43.009Z,-0.26
2022-12-15T03:43:17.834Z,0.04
2022-12-15T03:45:48.225Z,-0.03
2022-12-15T03:48:18.804Z,0.09
2022-12-15T03:50:50.249Z,-0.03
2022-12-15T03:53:19.484Z,-0.08
2022-12-15T03:55:49.851Z,-0.07
2022-12-15T03:58:21.727Z,-0.24
2022-12-15T04:00:50.687Z,-0.04
2022-12-15T04:03:20.633Z,-0.06
2022-12-15T04:05:49.671Z,-0.25
2022-12-15T04:08:27.495Z,-0.13
2022-12-15T04:10:57.580Z,-0.15
2022-12-15T04:13:58.094Z,0.01
2022-12-15T04:16:30.240Z,-0.23
2022-12-15T04:19:32.456Z,-0.07
2022-12-15T04:22:18.096Z,-0.18
2022-12-15T04:25:17.710Z,-0.13
2022-12-15T04:28:08.557Z,-0.18
2022-12-15T04:30:59.623Z,-0.13
2022-12-15T04:34:01.423Z,-0.08
2022-12-15T04:37:01.904Z,-0.16
2022-12-15T04:40:00.848Z,-0.01
2022-12-15T04:42:53.593Z,0.11
2022-12-15T04:45:53.208Z,0.19
2022-12-15T04:48:52.013Z,0.18
2022-12-15T04:51:41.122Z,0.12
2022-12-15T04:54:29.652Z,0.21
2022-12-15T04:57:19.569Z,0.15
2022-12-15T05:00:10.581Z,0.11
2022-12-15T05:02:59.499Z,0.14
2022-12-15T05:05:53.539Z,0.09
2022-12-15T05:14:56.468Z,0.23
2022-12-15T05:21:09.728Z,0.10
2022-12-15T05:27:41.041Z,0.26
2022-12-15T05:33:30.340Z,0.34
2022-12-15T05:36:14.031Z,0.26
2022-12-15T05:38:45.094Z,0.26
2022-12-15T05:41:15.872Z,0.35
2022-12-15T05:46:38.746Z,0.50
2022-12-15T05:49:11.907Z,0.35
2022-12-15T05:51:45.603Z,0.61
2022-12-15T05:54:23.957Z,0.46
2022-12-15T05:56:52.680Z,0.42
2022-12-15T05:59:23.968Z,0.42
2022-12-15T06:02:12.404Z,0.51
2022-12-15T06:04:56.618Z,0.50
2022-12-15T06:07:31.750Z,0.60
2022-12-15T06:10:02.597Z,0.66
2022-12-15T06:15:22.098Z,0.78
2022-12-15T06:17:54.353Z,0.80
2022-12-15T06:23:15.339Z,0.75
2022-12-15T06:25:58.260Z,0.70
2022-12-15T06:28:34.713Z,0.61
2022-12-15T06:31:06.153Z,0.79
2022-12-15T06:33:48.619Z,0.65
2022-12-15T06:36:21.795Z,0.85
2022-12-15T06:39:07.882Z,0.90
2022-12-15T06:41:39.932Z,0.91
2022-12-15T06:47:04.142Z,0.72
2022-12-15T06:49:32.310Z,1.02
2022-12-15T06:52:01.361Z,1.03
2022-12-15T06:54:34.420Z,0.95
2022-12-15T06:57:06.650Z,0.93
2022-12-15T06:59:35.474Z,1.10
2022-12-15T07:02:05.235Z,1.03
2022-12-15T07:04:34.431Z,1.17
2022-12-15T07:07:03.524Z,0.94
2022-12-15T07:09:31.506Z,1.09
2022-12-15T07:12:00.972Z,1.04
2022-12-15T07:14:29.515Z,1.11
2022-12-15T07:16:59.064Z,1.24
2022-12-15T07:19:28.216Z,1.23
2022-12-15T07:21:59.251Z,1.26
2022-12-15T07:24:28.058Z,1.34
2022-12-15T07:26:56.728Z,1.12
2022-12-15T07:29:25.832Z,1.20
2022-12-15T07:31:54.545Z,1.29
2022-12-15T07:34:26.879Z,1.26
2022-12-15T07:36:56.861Z,1.13
2022-12-15T07:39:28.222Z,1.40
2022-12-15T07:41:57.982Z,1.30
2022-12-15T07:44:30.838Z,1.51
2022-12-15T07:47:01.216Z,1.39
2022-12-15T07:49:29.587Z,1.23
2022-12-15T07:54:54.514Z,1.48
2022-12-15T07:57:23.879Z,1.45
2022-12-15T07:59:53.569Z,1.57
2022-12-15T08:02:22.884Z,1.33
2022-12-15T08:04:52.918Z,1.37
2022-12-15T08:07:25.225Z,1.61
2022-12-15T08:10:22.232Z,1.35
2022-12-15T08:12:52.450Z,1.44
2022-12-15T08:15:28.817Z,1.63
2022-12-15T08:17:58.296Z,1.62
2022-12-15T08:20:26.898Z,1.69
2022-12-15T08:22:54.734Z,1.83
2022-12-15T08:25:23.365Z,1.81
2022-12-15T08:27:52.641Z,1.50
2022-12-15T08:30:22.346Z,1.63
2022-12-15T08:32:52.305Z,1.69
2022-12-15T08:35:54.540Z,1.66
2022-12-15T08:38:08.664Z,1.79
2022-12-15T08:40:37.469Z,1.75
2022-12-15T08:43:08.514Z,1.88
2022-12-15T08:45:43.209Z,1.87
2022-12-15T08:48:14.304Z,1.75
2022-12-15T08:50:46.600Z,1.75
2022-12-15T08:53:30.957Z,1.91
2022-12-15T08:56:21.160Z,1.95
2022-12-15T08:58:56.729Z,2.09
2022-12-15T09:01:27.171Z,2.25
2022-12-15T09:03:57.073Z,2.36
2022-12-15T09:06:29.109Z,2.33
2022-12-15T09:08:59.290Z,2.38
2022-12-15T09:11:28.839Z,2.38
2022-12-15T09:13:56.966Z,2.36
2022-12-15T09:16:27.993Z,2.51
2022-12-15T09:18:58.403Z,2.53
2022-12-15T09:21:29.178Z,2.69
2022-12-15T09:24:02.291Z,2.63
2022-12-15T09:26:33.957Z,2.69
2022-12-15T09:29:02.538Z,2.63
2022-12-15T09:31:37.622Z,2.53
2022-12-15T09:34:05.562Z,2.65
2022-12-15T09:36:33.556Z,2.75
2022-12-15T09:39:04.459Z,2.78
2022-12-15T09:41:37.074Z,2.87
2022-12-15T09:44:18.224Z,2.79
2022-12-15T09:47:17.223Z,2.89
2022-12-15T09:49:58.198Z,3.12
2022-12-15T09:52:32.513Z,2.92
2022-12-15T09:55:02.010Z,2.82
2022-12-15T09:57:36.214Z,2.95
2022-12-15T10:00:28.580Z,2.78
2022-12-15T10:03:34.913Z,2.93
2022-12-15T14:05:39.844Z,2.88
2022-12-15T14:08:16.301Z,2.94
2022-12-15T14:10:51.470Z,2.91
2022-12-15T14:13:28.645Z,2.86
2022-12-15T14:16:22.345Z,2.86
2022-12-15T14:19:15.958Z,2.84
2022-12-15T14:25:32.934Z,2.96
2022-12-15T14:28:27.119Z,3.00
2022-12-15T14:31:07.248Z,3.05
2022-12-15T14:33:44.029Z,2.97
2022-12-15T14:36:17.295Z,3.09
2022-12-15T14:39:00.443Z,3.03
2022-12-15T14:44:49.766Z,3.12
2022-12-15T14:47:37.565Z,3.07
2022-12-15T14:53:14.095Z,3.10
2022-12-15T14:55:46.622Z,3.05
2022-12-15T15:01:39.394Z,3.04
2022-12-15T15:04:36.974Z,2.98
2022-12-15T15:07:21.014Z,3.09
2022-12-15T15:09:49.734Z,3.09
2022-12-15T15:12:23.140Z,3.12
2022-12-15T15:15:06.503Z,3.13
2022-12-15T15:17:44.866Z,3.20
2022-12-15T15:20:25.245Z,3.20
2022-12-15T15:23:20.246Z,3.12
2022-12-15T15:26:10.416Z,3.05
2022-12-15T15:28:43.671Z,3.04
2022-12-15T15:40:18.378Z,3.02
2022-12-15T15:43:15.801Z,3.11
2022-12-15T15:49:20.665Z,3.00
2022-12-15T15:51:56.920Z,3.11
2022-12-15T15:54:45.176Z,2.98
2022-12-15T15:57:19.897Z,3.05
2022-12-15T15:59:55.709Z,3.07
2022-12-15T16:02:25.082Z,3.06
2022-12-15T16:07:46.823Z,3.03
2022-12-15T16:10:22.200Z,3.15
2022-12-15T16:12:56.394Z,3.11
2022-12-15T16:15:35.136Z,3.06
2022-12-15T16:20:55.630Z,3.07
2022-12-15T16:29:30.029Z,3.15
2022-12-15T16:34:59.331Z,3.07
2022-12-15T16:37:39.638Z,2.92
2022-12-15T16:40:29.363Z,2.91
2022-12-15T16:43:05.667Z,2.93
2022-12-15T16:45:34.341Z,2.75
2022-12-15T16:48:08.190Z,2.94
2022-12-15T16:50:47.519Z,2.77
2022-12-15T16:53:24.117Z,2.84
2022-12-15T16:55:56.793Z,2.86
2022-12-15T16:58:28.730Z,2.71
2022-12-15T17:19:10.259Z,2.76
2022-12-15T17:34:53.591Z,2.81
2022-12-15T17:37:31.857Z,2.70
2022-12-15T17:40:28.390Z,2.85
2022-12-15T17:43:04.682Z,2.81
2022-12-15T17:48:39.271Z,2.72
2022-12-15T17:54:14.369Z,2.80
2022-12-15T17:56:52.158Z,2.70
2022-12-15T17:59:27.832Z,2.69
2022-12-15T18:02:03.169Z,2.69
2022-12-15T18:07:48.026Z,2.77
2022-12-15T18:10:48.187Z,2.74
2022-12-15T18:13:35.368Z,2.71
2022-12-15T18:16:08.529Z,2.77
2022-12-15T18:19:14.906Z,2.78
2022-12-15T18:22:02.653Z,2.71
2022-12-15T18:31:32.580Z,2.78
2022-12-15T18:34:15.221Z,2.78
2022-12-15T18:42:41.188Z,2.84
2022-12-15T18:45:34.305Z,2.80
2022-12-15T18:54:38.649Z,3.15
2022-12-15T18:57:41.950Z,3.20
2022-12-15T19:06:25.709Z,3.20
2022-12-15T19:15:26.880Z,3.01
2022-12-15T19:31:06.242Z,3.05
2022-12-15T22:49:38.536Z,3.21
2022-12-15T22:52:18.499Z,3.36
2022-12-15T22:54:48.381Z,3.32
2022-12-15T22:57:30.984Z,3.44
2022-12-15T23:00:10.161Z,3.52
2022-12-15T23:02:44.322Z,3.49
2022-12-15T23:05:17.485Z,3.48
2022-12-15T23:07:51.271Z,3.48
2022-12-15T23:10:40.343Z,3.49
2022-12-15T23:13:10.095Z,3.47
2022-12-15T23:16:00.743Z,3.58
2022-12-15T23:18:29.221Z,3.59
2022-12-15T23:20:58.060Z,3.58
2022-12-15T23:23:28.309Z,3.63
2022-12-15T23:25:58.975Z,3.75
2022-12-15T23:28:28.916Z,3.59
2022-12-15T23:30:58.208Z,3.61
2022-12-15T23:33:28.311Z,3.66
2022-12-15T23:35:59.323Z,3.51
2022-12-15T23:38:29.883Z,3.56
2022-12-15T23:40:58.916Z,3.60
2022-12-15T23:43:32.252Z,3.62
2022-12-15T23:46:07.298Z,3.62
2022-12-15T23:48:41.255Z,3.66
2022-12-15T23:51:17.785Z,3.83
2022-12-15T23:53:47.656Z,3.70
2022-12-15T23:56:24.805Z,3.74
2022-12-15T23:58:59.277Z,3.61
